sensor_id;sensor_type;location;lat;lon;timestamp;temperature;humidity
6627;DHT22;3349;49.830;8.748;2023-10-31T00:01:58;11.60;99.90
6627;DHT22;3349;49.830;8.748;2023-10-31T00:04:25;11.50;99.90
6627;DHT22;3349;49.830;8.748;2023-10-31T00:06:52;11.50;99.90
6627;DHT22;3349;49.830;8.748;2023-10-31T00:09:18;11.50;99.90
6627;DHT22;3349;49.830;8.748;2023-10-31T00:11:45;11.40;99.90
6627;DHT22;3349;49.830;8.748;2023-10-31T00:14:12;11.40;99.90
6627;DHT22;3349;49.830;8.748;2023-10-31T00:16:38;11.40;99.90
6627;DHT22;3349;49.830;8.748;2023-10-31T00:19:06;11.30;99.90
6627;DHT22;3349;49.830;8.748;2023-10-31T00:21:33;11.30;99.90
6627;DHT22;3349;49.830;8.748;2023-10-31T00:23:59;11.20;99.90
6627;DHT22;3349;49.830;8.748;2023-10-31T00:26:25;11.10;99.90
6627;DHT22;3349;49.830;8.748;2023-10-31T00:28:52;11.10;99.90
6627;DHT22;3349;49.830;8.748;2023-10-31T00:31:19;11.10;99.90
6627;DHT22;3349;49.830;8.748;2023-10-31T00:33:45;11.00;99.90
6627;DHT22;3349;49.830;8.748;2023-10-31T00:36:13;11.00;99.90
6627;DHT22;3349;49.830;8.748;2023-10-31T00:38:40;11.00;99.90
6627;DHT22;3349;49.830;8.748;2023-10-31T00:41:07;11.00;99.90
6627;DHT22;3349;49.830;8.748;2023-10-31T00:43:33;10.90;99.90
6627;DHT22;3349;49.830;8.748;2023-10-31T00:46:02;10.90;99.90
6627;DHT22;3349;49.830;8.748;2023-10-31T00:48:29;10.90;99.90
6627;DHT22;3349;49.830;8.748;2023-10-31T00:51:01;10.90;99.90
6627;DHT22;3349;49.830;8.748;2023-10-31T00:53:29;10.80;99.90
6627;DHT22;3349;49.830;8.748;2023-10-31T00:55:56;10.80;99.90
6627;DHT22;3349;49.830;8.748;2023-10-31T00:58:23;10.70;99.90
6627;DHT22;3349;49.830;8.748;2023-10-31T01:00:49;10.70;99.90
6627;DHT22;3349;49.830;8.748;2023-10-31T01:03:16;10.70;99.90
6627;DHT22;3349;49.830;8.748;2023-10-31T01:05:43;10.60;99.90
6627;DHT22;3349;49.830;8.748;2023-10-31T01:08:09;10.60;99.90
6627;DHT22;3349;49.830;8.748;2023-10-31T01:10:37;10.50;99.90
6627;DHT22;3349;49.830;8.748;2023-10-31T01:13:04;10.50;99.90
6627;DHT22;3349;49.830;8.748;2023-10-31T01:15:31;10.50;99.90
6627;DHT22;3349;49.830;8.748;2023-10-31T01:17:57;10.50;99.90
6627;DHT22;3349;49.830;8.748;2023-10-31T01:20:24;10.50;99.90
6627;DHT22;3349;49.830;8.748;2023-10-31T01:22:51;10.50;99.90
6627;DHT22;3349;49.830;8.748;2023-10-31T01:25:18;10.40;99.90
6627;DHT22;3349;49.830;8.748;2023-10-31T01:27:46;10.40;99.90
6627;DHT22;3349;49.830;8.748;2023-10-31T01:30:13;10.30;99.90
6627;DHT22;3349;49.830;8.748;2023-10-31T01:32:40;10.30;99.90
6627;DHT22;3349;49.830;8.748;2023-10-31T01:35:07;10.30;99.90
6627;DHT22;3349;49.830;8.748;2023-10-31T01:37:34;10.20;99.90
6627;DHT22;3349;49.830;8.748;2023-10-31T01:40:00;10.20;99.90
6627;DHT22;3349;49.830;8.748;2023-10-31T01:42:27;10.10;99.90
6627;DHT22;3349;49.830;8.748;2023-10-31T01:44:55;10.10;99.90
6627;DHT22;3349;49.830;8.748;2023-10-31T01:47:22;10.10;99.90
6627;DHT22;3349;49.830;8.748;2023-10-31T01:49:50;10.00;99.90
6627;DHT22;3349;49.830;8.748;2023-10-31T01:52:17;10.10;99.90
6627;DHT22;3349;49.830;8.748;2023-10-31T01:54:44;10.20;99.90
6627;DHT22;3349;49.830;8.748;2023-10-31T01:57:11;10.30;99.90
6627;DHT22;3349;49.830;8.748;2023-10-31T01:59:37;10.30;99.90
6627;DHT22;3349;49.830;8.748;2023-10-31T02:02:07;10.30;99.90
6627;DHT22;3349;49.830;8.748;2023-10-31T02:04:33;10.30;99.90
6627;DHT22;3349;49.830;8.748;2023-10-31T02:07:00;10.40;99.90
6627;DHT22;3349;49.830;8.748;2023-10-31T02:09:27;10.40;99.90
6627;DHT22;3349;49.830;8.748;2023-10-31T02:11:55;10.30;99.90
6627;DHT22;3349;49.830;8.748;2023-10-31T02:14:23;10.30;99.90
6627;DHT22;3349;49.830;8.748;2023-10-31T02:16:50;10.30;99.90
6627;DHT22;3349;49.830;8.748;2023-10-31T02:19:20;10.30;99.90
6627;DHT22;3349;49.830;8.748;2023-10-31T02:21:48;10.20;99.90
6627;DHT22;3349;49.830;8.748;2023-10-31T02:24:14;10.30;99.90
6627;DHT22;3349;49.830;8.748;2023-10-31T02:26:41;10.20;99.90
6627;DHT22;3349;49.830;8.748;2023-10-31T02:29:08;10.20;99.90
6627;DHT22;3349;49.830;8.748;2023-10-31T02:31:34;10.20;99.90
6627;DHT22;3349;49.830;8.748;2023-10-31T02:34:01;10.20;99.90
6627;DHT22;3349;49.830;8.748;2023-10-31T02:36:27;10.20;99.90
6627;DHT22;3349;49.830;8.748;2023-10-31T02:38:55;10.20;99.90
6627;DHT22;3349;49.830;8.748;2023-10-31T02:41:22;10.10;99.90
6627;DHT22;3349;49.830;8.748;2023-10-31T02:43:50;10.10;99.90
6627;DHT22;3349;49.830;8.748;2023-10-31T02:46:17;10.20;99.90
6627;DHT22;3349;49.830;8.748;2023-10-31T02:48:44;10.20;99.90
6627;DHT22;3349;49.830;8.748;2023-10-31T02:51:11;10.20;99.90
6627;DHT22;3349;49.830;8.748;2023-10-31T02:53:38;10.20;99.90
6627;DHT22;3349;49.830;8.748;2023-10-31T02:56:06;10.20;99.90
6627;DHT22;3349;49.830;8.748;2023-10-31T02:58:33;10.30;99.90
6627;DHT22;3349;49.830;8.748;2023-10-31T03:01:00;10.30;99.90
6627;DHT22;3349;49.830;8.748;2023-10-31T03:03:27;10.40;99.90
6627;DHT22;3349;49.830;8.748;2023-10-31T03:05:53;10.40;99.90
6627;DHT22;3349;49.830;8.748;2023-10-31T03:08:20;10.50;99.90
6627;DHT22;3349;49.830;8.748;2023-10-31T03:10:48;10.50;99.90
6627;DHT22;3349;49.830;8.748;2023-10-31T03:13:18;10.50;99.90
6627;DHT22;3349;49.830;8.748;2023-10-31T03:15:45;10.60;99.90
6627;DHT22;3349;49.830;8.748;2023-10-31T03:18:12;10.60;99.90
6627;DHT22;3349;49.830;8.748;2023-10-31T03:20:39;10.60;99.90
6627;DHT22;3349;49.830;8.748;2023-10-31T03:23:06;10.60;99.90
6627;DHT22;3349;49.830;8.748;2023-10-31T03:25:33;10.60;99.90
6627;DHT22;3349;49.830;8.748;2023-10-31T03:28:00;10.60;99.90
6627;DHT22;3349;49.830;8.748;2023-10-31T03:30:28;10.60;99.90
6627;DHT22;3349;49.830;8.748;2023-10-31T03:32:54;10.60;99.90
6627;DHT22;3349;49.830;8.748;2023-10-31T03:35:21;10.50;99.90
6627;DHT22;3349;49.830;8.748;2023-10-31T03:37:48;10.50;99.90
6627;DHT22;3349;49.830;8.748;2023-10-31T03:40:15;10.50;99.90
6627;DHT22;3349;49.830;8.748;2023-10-31T03:42:41;10.50;99.90
6627;DHT22;3349;49.830;8.748;2023-10-31T03:45:09;10.40;99.90
6627;DHT22;3349;49.830;8.748;2023-10-31T03:47:37;10.40;99.90
6627;DHT22;3349;49.830;8.748;2023-10-31T03:50:04;10.50;99.90
6627;DHT22;3349;49.830;8.748;2023-10-31T03:52:31;10.50;99.90
6627;DHT22;3349;49.830;8.748;2023-10-31T03:54:58;10.50;99.90
6627;DHT22;3349;49.830;8.748;2023-10-31T03:57:24;10.50;99.90
6627;DHT22;3349;49.830;8.748;2023-10-31T03:59:51;10.60;99.90
6627;DHT22;3349;49.830;8.748;2023-10-31T04:02:18;10.60;99.90
6627;DHT22;3349;49.830;8.748;2023-10-31T04:04:46;10.60;99.90
6627;DHT22;3349;49.830;8.748;2023-10-31T04:07:12;10.70;99.90
6627;DHT22;3349;49.830;8.748;2023-10-31T04:09:39;10.70;99.90
6627;DHT22;3349;49.830;8.748;2023-10-31T04:12:06;10.70;99.90
6627;DHT22;3349;49.830;8.748;2023-10-31T04:14:33;10.70;99.90
6627;DHT22;3349;49.830;8.748;2023-10-31T04:16:59;10.70;99.90
6627;DHT22;3349;49.830;8.748;2023-10-31T04:19:26;10.80;99.90
6627;DHT22;3349;49.830;8.748;2023-10-31T04:21:54;10.70;99.90
6627;DHT22;3349;49.830;8.748;2023-10-31T04:24:21;10.70;99.90
6627;DHT22;3349;49.830;8.748;2023-10-31T04:26:47;10.70;99.90
6627;DHT22;3349;49.830;8.748;2023-10-31T04:29:14;10.70;99.90
6627;DHT22;3349;49.830;8.748;2023-10-31T04:31:40;10.70;99.90
6627;DHT22;3349;49.830;8.748;2023-10-31T04:34:07;10.70;99.90
6627;DHT22;3349;49.830;8.748;2023-10-31T04:36:34;10.80;99.90
6627;DHT22;3349;49.830;8.748;2023-10-31T04:39:02;10.70;99.90
6627;DHT22;3349;49.830;8.748;2023-10-31T04:41:29;10.70;99.90
6627;DHT22;3349;49.830;8.748;2023-10-31T04:43:56;10.70;99.90
6627;DHT22;3349;49.830;8.748;2023-10-31T04:46:24;10.70;99.90
6627;DHT22;3349;49.830;8.748;2023-10-31T04:48:52;10.70;99.90
6627;DHT22;3349;49.830;8.748;2023-10-31T04:51:19;10.80;99.90
6627;DHT22;3349;49.830;8.748;2023-10-31T04:53:45;10.80;99.90
6627;DHT22;3349;49.830;8.748;2023-10-31T04:56:14;10.80;99.90
6627;DHT22;3349;49.830;8.748;2023-10-31T04:58:41;10.80;99.90
6627;DHT22;3349;49.830;8.748;2023-10-31T05:01:09;10.80;99.90
6627;DHT22;3349;49.830;8.748;2023-10-31T05:03:36;10.80;99.90
6627;DHT22;3349;49.830;8.748;2023-10-31T05:06:03;10.80;99.90
6627;DHT22;3349;49.830;8.748;2023-10-31T05:08:30;10.80;99.90
6627;DHT22;3349;49.830;8.748;2023-10-31T05:10:57;10.80;99.90
6627;DHT22;3349;49.830;8.748;2023-10-31T05:13:26;10.70;99.90
6627;DHT22;3349;49.830;8.748;2023-10-31T05:15:52;10.70;99.90
6627;DHT22;3349;49.830;8.748;2023-10-31T05:18:19;10.70;99.90
6627;DHT22;3349;49.830;8.748;2023-10-31T05:20:46;10.80;99.90
6627;DHT22;3349;49.830;8.748;2023-10-31T05:23:13;10.80;99.90
6627;DHT22;3349;49.830;8.748;2023-10-31T05:25:40;10.80;99.90
6627;DHT22;3349;49.830;8.748;2023-10-31T05:28:07;10.80;99.90
6627;DHT22;3349;49.830;8.748;2023-10-31T05:30:34;10.80;99.90
6627;DHT22;3349;49.830;8.748;2023-10-31T05:33:02;10.80;99.90
6627;DHT22;3349;49.830;8.748;2023-10-31T05:35:29;10.80;99.90
6627;DHT22;3349;49.830;8.748;2023-10-31T05:37:56;10.80;99.90
6627;DHT22;3349;49.830;8.748;2023-10-31T05:40:22;10.80;99.90
6627;DHT22;3349;49.830;8.748;2023-10-31T05:42:50;10.90;99.90
6627;DHT22;3349;49.830;8.748;2023-10-31T05:45:17;10.80;99.90
6627;DHT22;3349;49.830;8.748;2023-10-31T05:47:45;10.80;99.90
6627;DHT22;3349;49.830;8.748;2023-10-31T05:50:12;10.90;99.90
6627;DHT22;3349;49.830;8.748;2023-10-31T05:52:38;10.90;99.90
6627;DHT22;3349;49.830;8.748;2023-10-31T05:55:06;10.80;99.90
6627;DHT22;3349;49.830;8.748;2023-10-31T05:57:33;10.80;99.90
6627;DHT22;3349;49.830;8.748;2023-10-31T05:59:59;10.80;99.90
6627;DHT22;3349;49.830;8.748;2023-10-31T06:02:26;10.80;99.90
6627;DHT22;3349;49.830;8.748;2023-10-31T06:04:54;10.80;99.90
6627;DHT22;3349;49.830;8.748;2023-10-31T06:07:21;10.70;99.90
6627;DHT22;3349;49.830;8.748;2023-10-31T06:09:47;10.80;99.90
6627;DHT22;3349;49.830;8.748;2023-10-31T06:12:14;10.90;99.90
6627;DHT22;3349;49.830;8.748;2023-10-31T06:14:41;10.80;99.90
6627;DHT22;3349;49.830;8.748;2023-10-31T06:17:09;10.70;99.90
6627;DHT22;3349;49.830;8.748;2023-10-31T06:19:36;10.70;99.90
6627;DHT22;3349;49.830;8.748;2023-10-31T06:22:04;10.70;99.90
6627;DHT22;3349;49.830;8.748;2023-10-31T06:24:31;10.70;99.90
6627;DHT22;3349;49.830;8.748;2023-10-31T06:26:57;10.70;99.90
6627;DHT22;3349;49.830;8.748;2023-10-31T06:29:24;10.70;99.90
6627;DHT22;3349;49.830;8.748;2023-10-31T06:31:51;10.70;99.90
6627;DHT22;3349;49.830;8.748;2023-10-31T06:34:17;10.80;99.90
6627;DHT22;3349;49.830;8.748;2023-10-31T06:36:44;10.80;99.90
6627;DHT22;3349;49.830;8.748;2023-10-31T06:39:12;10.80;99.90
6627;DHT22;3349;49.830;8.748;2023-10-31T06:41:39;10.70;99.90
6627;DHT22;3349;49.830;8.748;2023-10-31T06:44:05;10.70;99.90
6627;DHT22;3349;49.830;8.748;2023-10-31T06:46:32;10.70;99.90
6627;DHT22;3349;49.830;8.748;2023-10-31T06:48:59;10.80;99.90
6627;DHT22;3349;49.830;8.748;2023-10-31T06:51:25;10.70;99.90
6627;DHT22;3349;49.830;8.748;2023-10-31T06:53:52;10.70;99.90
6627;DHT22;3349;49.830;8.748;2023-10-31T06:56:20;10.70;99.90
6627;DHT22;3349;49.830;8.748;2023-10-31T06:58:47;10.70;99.90
6627;DHT22;3349;49.830;8.748;2023-10-31T07:01:14;10.70;99.90
6627;DHT22;3349;49.830;8.748;2023-10-31T07:03:43;10.70;99.90
6627;DHT22;3349;49.830;8.748;2023-10-31T07:06:10;10.80;99.90
6627;DHT22;3349;49.830;8.748;2023-10-31T07:08:37;10.70;99.90
6627;DHT22;3349;49.830;8.748;2023-10-31T07:11:04;10.70;99.90
6627;DHT22;3349;49.830;8.748;2023-10-31T07:13:32;10.70;99.90
6627;DHT22;3349;49.830;8.748;2023-10-31T07:15:58;10.70;99.90
6627;DHT22;3349;49.830;8.748;2023-10-31T07:18:25;10.70;99.90
6627;DHT22;3349;49.830;8.748;2023-10-31T07:20:52;10.70;99.90
6627;DHT22;3349;49.830;8.748;2023-10-31T07:23:18;10.70;99.90
6627;DHT22;3349;49.830;8.748;2023-10-31T07:25:45;10.70;99.90
6627;DHT22;3349;49.830;8.748;2023-10-31T07:28:12;10.70;99.90
6627;DHT22;3349;49.830;8.748;2023-10-31T07:30:40;10.70;99.90
6627;DHT22;3349;49.830;8.748;2023-10-31T07:33:06;10.70;99.90
6627;DHT22;3349;49.830;8.748;2023-10-31T07:35:33;10.70;99.90
6627;DHT22;3349;49.830;8.748;2023-10-31T07:38:00;10.70;99.90
6627;DHT22;3349;49.830;8.748;2023-10-31T07:40:27;10.70;99.90
6627;DHT22;3349;49.830;8.748;2023-10-31T07:42:53;10.80;99.90
6627;DHT22;3349;49.830;8.748;2023-10-31T07:45:20;10.80;99.90
6627;DHT22;3349;49.830;8.748;2023-10-31T07:47:48;10.80;99.90
6627;DHT22;3349;49.830;8.748;2023-10-31T07:50:15;10.80;99.90
6627;DHT22;3349;49.830;8.748;2023-10-31T07:52:41;10.80;99.90
6627;DHT22;3349;49.830;8.748;2023-10-31T07:55:12;10.90;99.90
6627;DHT22;3349;49.830;8.748;2023-10-31T07:57:38;10.80;99.90
6627;DHT22;3349;49.830;8.748;2023-10-31T08:00:09;10.90;99.90
6627;DHT22;3349;49.830;8.748;2023-10-31T08:02:36;10.90;99.90
6627;DHT22;3349;49.830;8.748;2023-10-31T08:05:05;10.90;99.90
6627;DHT22;3349;49.830;8.748;2023-10-31T08:07:31;10.90;99.90
6627;DHT22;3349;49.830;8.748;2023-10-31T08:09:58;10.90;99.90
6627;DHT22;3349;49.830;8.748;2023-10-31T08:12:25;10.80;99.90
6627;DHT22;3349;49.830;8.748;2023-10-31T08:14:52;10.80;99.90
6627;DHT22;3349;49.830;8.748;2023-10-31T08:17:18;10.80;99.90
6627;DHT22;3349;49.830;8.748;2023-10-31T08:19:45;10.80;99.90
6627;DHT22;3349;49.830;8.748;2023-10-31T08:22:14;10.80;99.90
6627;DHT22;3349;49.830;8.748;2023-10-31T08:24:41;10.80;99.90
6627;DHT22;3349;49.830;8.748;2023-10-31T08:27:07;10.80;99.90
6627;DHT22;3349;49.830;8.748;2023-10-31T08:29:34;10.90;99.90
6627;DHT22;3349;49.830;8.748;2023-10-31T08:32:01;11.00;99.90
6627;DHT22;3349;49.830;8.748;2023-10-31T08:34:27;11.00;99.90
6627;DHT22;3349;49.830;8.748;2023-10-31T08:36:54;11.10;99.90
6627;DHT22;3349;49.830;8.748;2023-10-31T08:39:23;11.20;99.90
6627;DHT22;3349;49.830;8.748;2023-10-31T08:41:51;11.30;99.90
6627;DHT22;3349;49.830;8.748;2023-10-31T08:44:18;11.40;99.90
6627;DHT22;3349;49.830;8.748;2023-10-31T08:46:44;11.40;99.90
6627;DHT22;3349;49.830;8.748;2023-10-31T08:49:12;11.50;99.90
6627;DHT22;3349;49.830;8.748;2023-10-31T08:51:39;11.50;99.90
6627;DHT22;3349;49.830;8.748;2023-10-31T08:54:06;11.50;99.20
6627;DHT22;3349;49.830;8.748;2023-10-31T08:56:35;11.50;98.60
6627;DHT22;3349;49.830;8.748;2023-10-31T08:59:02;11.60;98.80
6627;DHT22;3349;49.830;8.748;2023-10-31T09:01:30;11.60;98.30
6627;DHT22;3349;49.830;8.748;2023-10-31T09:03:56;11.60;97.10
6627;DHT22;3349;49.830;8.748;2023-10-31T09:06:24;11.70;96.60
6627;DHT22;3349;49.830;8.748;2023-10-31T09:08:51;11.80;97.30
6627;DHT22;3349;49.830;8.748;2023-10-31T09:11:17;11.80;95.10
6627;DHT22;3349;49.830;8.748;2023-10-31T09:13:45;11.80;93.90
6627;DHT22;3349;49.830;8.748;2023-10-31T09:16:12;11.80;93.40
6627;DHT22;3349;49.830;8.748;2023-10-31T09:18:39;11.70;94.40
6627;DHT22;3349;49.830;8.748;2023-10-31T09:21:07;11.70;95.30
6627;DHT22;3349;49.830;8.748;2023-10-31T09:23:33;11.70;96.20
6627;DHT22;3349;49.830;8.748;2023-10-31T09:26:00;11.60;95.10
6627;DHT22;3349;49.830;8.748;2023-10-31T09:28:27;11.60;96.00
6627;DHT22;3349;49.830;8.748;2023-10-31T09:30:55;11.60;96.10
6627;DHT22;3349;49.830;8.748;2023-10-31T09:33:25;11.60;96.80
6627;DHT22;3349;49.830;8.748;2023-10-31T09:35:52;11.70;95.90
6627;DHT22;3349;49.830;8.748;2023-10-31T09:38:18;11.70;96.00
6627;DHT22;3349;49.830;8.748;2023-10-31T09:40:45;11.70;95.20
6627;DHT22;3349;49.830;8.748;2023-10-31T09:43:12;11.70;96.00
6627;DHT22;3349;49.830;8.748;2023-10-31T09:45:38;11.80;94.60
6627;DHT22;3349;49.830;8.748;2023-10-31T09:48:08;11.80;95.10
6627;DHT22;3349;49.830;8.748;2023-10-31T09:50:35;11.80;94.10
6627;DHT22;3349;49.830;8.748;2023-10-31T09:53:06;11.90;93.90
6627;DHT22;3349;49.830;8.748;2023-10-31T09:55:32;11.90;93.70
6627;DHT22;3349;49.830;8.748;2023-10-31T09:58:00;11.90;93.60
6627;DHT22;3349;49.830;8.748;2023-10-31T10:00:27;11.90;93.40
6627;DHT22;3349;49.830;8.748;2023-10-31T10:02:54;12.00;93.10
6627;DHT22;3349;49.830;8.748;2023-10-31T10:05:23;12.00;93.40
6627;DHT22;3349;49.830;8.748;2023-10-31T10:07:49;12.00;93.20
6627;DHT22;3349;49.830;8.748;2023-10-31T10:10:16;12.00;93.00
6627;DHT22;3349;49.830;8.748;2023-10-31T10:12:43;12.00;93.40
6627;DHT22;3349;49.830;8.748;2023-10-31T10:15:11;12.00;92.70
6627;DHT22;3349;49.830;8.748;2023-10-31T10:17:38;12.10;92.20
6627;DHT22;3349;49.830;8.748;2023-10-31T10:20:07;12.10;92.00
6627;DHT22;3349;49.830;8.748;2023-10-31T10:22:38;12.00;92.60
6627;DHT22;3349;49.830;8.748;2023-10-31T10:25:06;12.20;92.30
6627;DHT22;3349;49.830;8.748;2023-10-31T10:27:33;12.20;91.70
6627;DHT22;3349;49.830;8.748;2023-10-31T10:30:01;12.30;90.50
6627;DHT22;3349;49.830;8.748;2023-10-31T10:32:28;12.30;90.50
6627;DHT22;3349;49.830;8.748;2023-10-31T10:34:55;12.50;89.70
6627;DHT22;3349;49.830;8.748;2023-10-31T10:37:23;12.60;87.60
6627;DHT22;3349;49.830;8.748;2023-10-31T10:39:54;12.70;88.10
6627;DHT22;3349;49.830;8.748;2023-10-31T10:42:26;12.80;86.70
6627;DHT22;3349;49.830;8.748;2023-10-31T10:44:57;12.90;86.80
6627;DHT22;3349;49.830;8.748;2023-10-31T10:47:24;13.00;86.30
6627;DHT22;3349;49.830;8.748;2023-10-31T10:49:54;13.00;84.40
6627;DHT22;3349;49.830;8.748;2023-10-31T10:52:23;13.00;81.50
6627;DHT22;3349;49.830;8.748;2023-10-31T10:55:01;13.00;79.80
6627;DHT22;3349;49.830;8.748;2023-10-31T10:57:37;13.00;80.70
6627;DHT22;3349;49.830;8.748;2023-10-31T11:00:06;13.10;81.60
6627;DHT22;3349;49.830;8.748;2023-10-31T11:02:39;13.00;82.60
6627;DHT22;3349;49.830;8.748;2023-10-31T11:05:07;13.00;83.10
6627;DHT22;3349;49.830;8.748;2023-10-31T11:07:34;13.10;81.60
6627;DHT22;3349;49.830;8.748;2023-10-31T11:10:03;13.10;82.20
6627;DHT22;3349;49.830;8.748;2023-10-31T11:12:30;13.30;81.80
6627;DHT22;3349;49.830;8.748;2023-10-31T11:14:58;13.40;80.80
6627;DHT22;3349;49.830;8.748;2023-10-31T11:17:28;13.60;77.70
6627;DHT22;3349;49.830;8.748;2023-10-31T11:19:56;13.60;78.50
6627;DHT22;3349;49.830;8.748;2023-10-31T11:22:23;13.60;77.70
6627;DHT22;3349;49.830;8.748;2023-10-31T11:24:50;13.70;75.50
6627;DHT22;3349;49.830;8.748;2023-10-31T11:27:18;13.70;77.80
6627;DHT22;3349;49.830;8.748;2023-10-31T11:29:45;13.70;78.70
6627;DHT22;3349;49.830;8.748;2023-10-31T11:32:12;13.60;77.70
6627;DHT22;3349;49.830;8.748;2023-10-31T11:34:39;13.60;79.40
6627;DHT22;3349;49.830;8.748;2023-10-31T11:37:23;13.70;76.10
6627;DHT22;3349;49.830;8.748;2023-10-31T11:40:20;13.80;76.20
6627;DHT22;3349;49.830;8.748;2023-10-31T11:42:49;14.00;78.00
6627;DHT22;3349;49.830;8.748;2023-10-31T11:45:27;14.10;75.10
6627;DHT22;3349;49.830;8.748;2023-10-31T11:47:55;14.20;74.30
6627;DHT22;3349;49.830;8.748;2023-10-31T11:50:22;14.30;70.70
6627;DHT22;3349;49.830;8.748;2023-10-31T11:53:03;14.40;69.50
6627;DHT22;3349;49.830;8.748;2023-10-31T11:55:32;14.50;69.60
6627;DHT22;3349;49.830;8.748;2023-10-31T11:58:16;14.50;70.10
6627;DHT22;3349;49.830;8.748;2023-10-31T12:00:43;14.70;69.80
6627;DHT22;3349;49.830;8.748;2023-10-31T12:03:11;14.90;68.90
6627;DHT22;3349;49.830;8.748;2023-10-31T12:05:38;15.10;69.60
6627;DHT22;3349;49.830;8.748;2023-10-31T12:08:05;15.20;66.80
6627;DHT22;3349;49.830;8.748;2023-10-31T12:10:31;15.30;66.60
6627;DHT22;3349;49.830;8.748;2023-10-31T12:12:58;15.30;64.60
6627;DHT22;3349;49.830;8.748;2023-10-31T12:15:26;15.00;66.10
6627;DHT22;3349;49.830;8.748;2023-10-31T12:17:57;14.90;67.00
6627;DHT22;3349;49.830;8.748;2023-10-31T12:20:25;14.80;68.00
6627;DHT22;3349;49.830;8.748;2023-10-31T12:23:01;15.00;67.50
6627;DHT22;3349;49.830;8.748;2023-10-31T12:25:28;14.80;66.90
6627;DHT22;3349;49.830;8.748;2023-10-31T12:27:57;14.90;68.40
6627;DHT22;3349;49.830;8.748;2023-10-31T12:30:24;14.90;65.80
6627;DHT22;3349;49.830;8.748;2023-10-31T12:32:55;14.90;67.00
6627;DHT22;3349;49.830;8.748;2023-10-31T12:35:24;14.90;66.80
6627;DHT22;3349;49.830;8.748;2023-10-31T12:37:52;14.80;67.60
6627;DHT22;3349;49.830;8.748;2023-10-31T12:40:20;14.70;67.40
6627;DHT22;3349;49.830;8.748;2023-10-31T12:42:48;14.60;67.80
6627;DHT22;3349;49.830;8.748;2023-10-31T12:45:16;14.60;66.90
6627;DHT22;3349;49.830;8.748;2023-10-31T12:47:44;14.40;66.10
6627;DHT22;3349;49.830;8.748;2023-10-31T12:50:14;14.20;67.10
6627;DHT22;3349;49.830;8.748;2023-10-31T12:52:46;14.20;67.00
6627;DHT22;3349;49.830;8.748;2023-10-31T12:55:13;14.20;66.20
6627;DHT22;3349;49.830;8.748;2023-10-31T12:57:40;14.20;67.00
6627;DHT22;3349;49.830;8.748;2023-10-31T13:00:08;14.60;65.80
6627;DHT22;3349;49.830;8.748;2023-10-31T13:02:38;15.30;63.90
6627;DHT22;3349;49.830;8.748;2023-10-31T13:05:09;15.60;61.30
6627;DHT22;3349;49.830;8.748;2023-10-31T13:07:39;16.10;59.00
6627;DHT22;3349;49.830;8.748;2023-10-31T13:10:07;17.30;56.00
6627;DHT22;3349;49.830;8.748;2023-10-31T13:12:35;17.50;54.70
6627;DHT22;3349;49.830;8.748;2023-10-31T13:15:02;17.10;54.40
6627;DHT22;3349;49.830;8.748;2023-10-31T13:17:29;16.90;54.70
6627;DHT22;3349;49.830;8.748;2023-10-31T13:19:57;16.40;56.20
6627;DHT22;3349;49.830;8.748;2023-10-31T13:22:24;16.10;56.60
6627;DHT22;3349;49.830;8.748;2023-10-31T13:24:52;15.90;58.20
6627;DHT22;3349;49.830;8.748;2023-10-31T13:27:19;15.40;59.30
6627;DHT22;3349;49.830;8.748;2023-10-31T13:29:46;15.00;61.60
6627;DHT22;3349;49.830;8.748;2023-10-31T13:32:15;14.90;62.90
6627;DHT22;3349;49.830;8.748;2023-10-31T13:34:42;14.50;64.90
6627;DHT22;3349;49.830;8.748;2023-10-31T13:37:08;14.50;66.40
6627;DHT22;3349;49.830;8.748;2023-10-31T13:39:35;14.30;69.20
6627;DHT22;3349;49.830;8.748;2023-10-31T13:42:04;14.30;68.80
6627;DHT22;3349;49.830;8.748;2023-10-31T13:44:30;14.50;69.30
6627;DHT22;3349;49.830;8.748;2023-10-31T13:46:57;14.60;66.60
6627;DHT22;3349;49.830;8.748;2023-10-31T13:49:23;14.70;66.40
6627;DHT22;3349;49.830;8.748;2023-10-31T13:51:50;15.00;66.00
6627;DHT22;3349;49.830;8.748;2023-10-31T13:54:17;15.30;64.30
6627;DHT22;3349;49.830;8.748;2023-10-31T13:56:44;15.70;61.40
6627;DHT22;3349;49.830;8.748;2023-10-31T13:59:13;16.20;60.80
6627;DHT22;3349;49.830;8.748;2023-10-31T14:01:39;16.50;57.70
6627;DHT22;3349;49.830;8.748;2023-10-31T14:04:07;16.80;57.20
6627;DHT22;3349;49.830;8.748;2023-10-31T14:06:34;17.30;56.40
6627;DHT22;3349;49.830;8.748;2023-10-31T14:09:01;17.20;53.60
6627;DHT22;3349;49.830;8.748;2023-10-31T14:11:30;16.90;54.90
6627;DHT22;3349;49.830;8.748;2023-10-31T14:13:57;17.00;55.50
6627;DHT22;3349;49.830;8.748;2023-10-31T14:16:29;17.00;55.60
6627;DHT22;3349;49.830;8.748;2023-10-31T14:18:56;16.80;55.50
6627;DHT22;3349;49.830;8.748;2023-10-31T14:21:22;16.40;56.20
6627;DHT22;3349;49.830;8.748;2023-10-31T14:23:51;16.00;57.20
6627;DHT22;3349;49.830;8.748;2023-10-31T14:26:19;15.70;58.30
6627;DHT22;3349;49.830;8.748;2023-10-31T14:28:46;15.50;60.30
6627;DHT22;3349;49.830;8.748;2023-10-31T14:31:13;15.30;61.10
6627;DHT22;3349;49.830;8.748;2023-10-31T14:33:41;15.30;61.00
6627;DHT22;3349;49.830;8.748;2023-10-31T14:36:08;15.10;60.80
6627;DHT22;3349;49.830;8.748;2023-10-31T14:38:38;14.90;61.60
6627;DHT22;3349;49.830;8.748;2023-10-31T14:41:05;14.70;62.20
6627;DHT22;3349;49.830;8.748;2023-10-31T14:43:33;14.40;64.80
6627;DHT22;3349;49.830;8.748;2023-10-31T14:46:00;14.30;67.20
6627;DHT22;3349;49.830;8.748;2023-10-31T14:48:26;14.10;67.90
6627;DHT22;3349;49.830;8.748;2023-10-31T14:50:55;14.10;69.60
6627;DHT22;3349;49.830;8.748;2023-10-31T14:53:22;14.10;69.10
6627;DHT22;3349;49.830;8.748;2023-10-31T14:55:49;14.00;69.00
6627;DHT22;3349;49.830;8.748;2023-10-31T14:58:16;13.80;70.20
6627;DHT22;3349;49.830;8.748;2023-10-31T15:00:42;13.60;70.50
6627;DHT22;3349;49.830;8.748;2023-10-31T15:03:09;13.60;71.90
6627;DHT22;3349;49.830;8.748;2023-10-31T15:05:35;13.40;73.90
6627;DHT22;3349;49.830;8.748;2023-10-31T15:08:04;13.30;75.60
6627;DHT22;3349;49.830;8.748;2023-10-31T15:10:32;13.20;77.30
6627;DHT22;3349;49.830;8.748;2023-10-31T15:12:59;13.20;77.70
6627;DHT22;3349;49.830;8.748;2023-10-31T15:15:25;13.10;79.50
6627;DHT22;3349;49.830;8.748;2023-10-31T15:17:52;13.10;80.50
6627;DHT22;3349;49.830;8.748;2023-10-31T15:20:19;13.10;81.20
6627;DHT22;3349;49.830;8.748;2023-10-31T15:22:46;13.00;82.40
6627;DHT22;3349;49.830;8.748;2023-10-31T15:25:15;13.00;82.80
6627;DHT22;3349;49.830;8.748;2023-10-31T15:27:42;12.90;82.80
6627;DHT22;3349;49.830;8.748;2023-10-31T15:30:10;12.90;81.60
6627;DHT22;3349;49.830;8.748;2023-10-31T15:32:38;13.00;82.60
6627;DHT22;3349;49.830;8.748;2023-10-31T15:35:05;12.90;82.80
6627;DHT22;3349;49.830;8.748;2023-10-31T15:37:31;12.90;81.60
6627;DHT22;3349;49.830;8.748;2023-10-31T15:39:58;12.90;82.20
6627;DHT22;3349;49.830;8.748;2023-10-31T15:42:26;12.80;82.20
6627;DHT22;3349;49.830;8.748;2023-10-31T15:44:53;12.80;83.10
6627;DHT22;3349;49.830;8.748;2023-10-31T15:47:21;12.70;83.40
6627;DHT22;3349;49.830;8.748;2023-10-31T15:49:48;12.70;85.50
6627;DHT22;3349;49.830;8.748;2023-10-31T15:52:14;12.60;86.70
6627;DHT22;3349;49.830;8.748;2023-10-31T15:54:41;12.50;87.10
6627;DHT22;3349;49.830;8.748;2023-10-31T15:57:08;12.50;88.10
6627;DHT22;3349;49.830;8.748;2023-10-31T15:59:36;12.50;88.90
6627;DHT22;3349;49.830;8.748;2023-10-31T16:02:04;12.40;89.60
6627;DHT22;3349;49.830;8.748;2023-10-31T16:04:31;12.30;90.10